• Join FlightAware (Why Join?)
  • Login
  • US Flag 
Rudolph Flight #1: Arrived! 
09:20AM EST


 

Airport Tracker/Info


-or-


 

Live Flight TrackerFlight Track Log ✈ EJA641 ✈ 24-Apr-2013 ✈ CYYZ - KHPN

Flight Track Log - Related Links

Times and Time Zones

All times are in EDT time to prevent confusion due to time zone crossing. See the EJA641 flight status page for this flight to view local times or setup timezone preferences in your user account.

Time Position Orientation Groundspeed Altitude Reporting Facility
EDT Latitude Longitude Course Direction KTS MPH feet Rate Location/Type
04:44PM 42.5167 -79.2333 36° Northeast 420 483 10,200  Level Toronto Center
04:45PM 42.6000 -79.1500 36° Northeast 380 437 9,800 -720 Descending Toronto Center
04:46PM 42.6833 -79.0833 30° Northeast 350 403 8,800 -1,140 Descending Toronto Center
04:47PM 42.7667 -79.0167 30° Northeast 340 391 7,600 -1,320 Descending Toronto Center
04:48PM 42.8333 -78.9667 29° Northeast 330 380 6,200 -60 Descending Toronto Center
04:50PM 42.7752 -78.7762 113° Southeast  Level Estimated
04:57PM 42.4686 -77.7943 113° Southeast  Level Estimated
04:58PM 42.4241 -77.6548 113° Southeast  Level Estimated
04:59PM 42.3795 -77.5155 113° Southeast  Level Estimated
05:00PM 42.3347 -77.3765 114° Southeast  Level Estimated
05:01PM 42.2897 -77.2376 114° Southeast  Level Estimated
05:02PM 42.2445 -77.0989 114° Southeast  Level Estimated
05:03PM 42.1992 -76.9604 114° Southeast  Level Estimated
05:04PM 42.1537 -76.8221 114° Southeast  Level Estimated
05:05PM 42.1081 -76.6840 114° Southeast  Level Estimated
05:06PM 42.0623 -76.5462 114° Southeast  Level Estimated
05:07PM 42.0163 -76.4085 114° Southeast  Level Estimated
05:08PM 41.9702 -76.2710 114° Southeast  Level Estimated
05:09PM 41.9239 -76.1337 114° Southeast  Level Estimated
05:10PM 41.8774 -75.9966 114° Southeast  Level Estimated
05:11PM 41.8307 -75.8597 115° Southeast  Level Estimated
05:12PM 41.7840 -75.7230 115° Southeast  Level Estimated
05:13PM 41.7370 -75.5865 115° Southeast  Level Estimated
05:14PM 41.6899 -75.4502 115° Southeast  Level Estimated
05:15PM 41.6426 -75.3141 115° Southeast  Level Estimated
05:16PM 41.5952 -75.1783 115° Southeast  Level Estimated
05:17PM 41.5476 -75.0426 115° Southeast  Level Estimated
05:18PM 41.4998 -74.9071 115° Southeast  Level Estimated
05:19PM 41.4519 -74.7718 115° Southeast  Level Estimated
05:20PM 41.4038 -74.6367 115° Southeast  Level Estimated
05:21PM 41.3556 -74.5018 115° Southeast  Level Estimated
05:22PM 41.3072 -74.3671 116° Southeast  Level Estimated
05:23PM 41.2587 -74.2326 116° Southeast  Level Estimated
05:24PM 41.2100 -74.0983 116° Southeast  Level Estimated
05:25PM 41.1611 -73.9642 116° Southeast  Level Estimated
05:26PM 41.1121 -73.8304 116° Southeast  Level Estimated
05:27PM 41.0669 -73.7076 116° Southeast  Level Estimated
05:28PM 41.0669 -73.7076 37° Northeast  Level Estimated
05:29PM 41.0669 -73.7076 37° Northeast  Level Estimated
05:30PM 41.0669 -73.7076 37° Northeast  Level Estimated
05:31PM 41.0669 -73.7076 37° Northeast  Level Estimated
05:32PM 41.0669 -73.7076 37° Northeast  Level Estimated
05:33PM 41.0669 -73.7076 37° Northeast  Level Estimated
05:34PM 41.0669 -73.7076 37° Northeast  Level Estimated
05:35PM 41.0669 -73.7076 37° Northeast  Level Estimated
05:36PM 41.0669 -73.7076 37° Northeast  Level Estimated
05:37PM 41.0669 -73.7076 37° Northeast  Level Estimated
05:38PM 41.0669 -73.7076 37° Northeast  Level Estimated
05:39PM 41.0669 -73.7076 37° Northeast  Level Estimated
05:40PM 41.0669 -73.7076 37° Northeast  Level Estimated
05:41PM 41.0669 -73.7076 37° Northeast  Level Estimated
05:42PM 41.0669 -73.7076 37° Northeast  Level Estimated
05:43PM 41.0669 -73.7076 37° Northeast  Level Estimated
05:44PM 41.0669 -73.7076 37° Northeast  Level Estimated
05:45PM 41.0669 -73.7076 37° Northeast  Level Estimated
05:46PM 41.0669 -73.7076 37° Northeast  Level Estimated
05:47PM 41.0669 -73.7076 37° Northeast  Level Estimated
05:47PM 43.7000 -79.6333 37° Northeast 170 196 4,300  Level Toronto Center
05:48PM 41.0669 -73.7076 37° Northeast  Level Estimated
05:48PM 43.7500 -79.6333 360° North 250 288 7,700  Level Toronto Center
05:49PM 41.0669 -73.7076 37° Northeast  Level Estimated
05:49PM 43.7667 -79.5167 79° East 270 311 11,200  Level Toronto Center
05:50PM 41.0669 -73.7076 37° Northeast  Level Estimated
05:50PM 43.7333 -79.4333 119° Southeast 290 334 12,900  Level Toronto Center
05:51PM 41.0669 -73.7076 37° Northeast  Level Estimated
05:51PM 43.6833 -79.3333 125° Southeast 300 345 15,800  Level Toronto Center
05:52PM 41.0669 -73.7076 37° Northeast  Level Estimated
05:52PM 43.6333 -79.2667 136° Southeast 300 345 18,500  Level Toronto Center
05:53PM 41.0669 -73.7076 37° Northeast  Level Estimated
05:53PM 43.5667 -79.1500 128° Southeast 320 368 21,400  Level Toronto Center
05:54PM 43.5000 -79.0667 138° Southeast 330 380 23,000 780 Climbing Toronto Center
05:55PM 43.4333 -78.9500 128° Southeast 380 437 23,000  Level Toronto Center
05:56PM 43.3833 -78.8000 115° Southeast 400 460 23,000  Level Toronto Center
05:57PM 43.3225 -78.7086 132° Southeast 398 458 23,000 1,080 Level Cleveland Center
05:58PM 43.2600 -78.5878 125° Southeast 404 465 25,200 2,340 Climbing Cleveland Center
05:59PM 43.2636 -78.4336 88° East 372 428 27,700 2,100 Climbing Cleveland Center
06:00PM 43.2917 -78.2703 77° East 385 443 29,500 1,620 Climbing Cleveland Center
06:01PM 43.2725 -78.1539 103° East 393 452 31,000 720 Climbing Cleveland Center
06:02PM 43.2256 -78.0019 113° Southeast 385 443 31,000  Level Cleveland Center
06:03PM 43.1783 -77.8586 114° Southeast 404 465 31,000  Level Cleveland Center
06:04PM 43.1292 -77.7158 115° Southeast 415 478 31,000  Level Cleveland Center
06:05PM 43.0817 -77.5731 114° Southeast 415 478 31,000  Level Cleveland Center
06:06PM 43.0361 -77.4272 113° Southeast 415 478 31,000  Level Cleveland Center
06:08PM 42.9558 -77.1900 115° Southeast 414 476 31,000  Level Boston Center
06:08PM 42.9167 -77.1000 121° Southeast 430 495 31,000  Level Toronto Center
06:09PM 42.8667 -76.9500 114° Southeast 430 495 31,000  Level Toronto Center
06:10PM 42.8553 -76.8931 105° East 420 483 31,000  Level Boston Center
06:11PM 42.8064 -76.7508 115° Southeast 420 483 31,000  Level Boston Center
06:12PM 42.7578 -76.6003 114° Southeast 420 483 31,000 -360 Level Boston Center
06:13PM 42.6953 -76.4239 116° Southeast 425 489 30,300 -780 Descending Boston Center
06:14PM 42.6422 -76.2678 115° Southeast 430 495 29,300 -1,140 Descending Boston Center
06:15PM 42.5853 -76.1008 115° Southeast 430 495 28,100 -780 Descending Boston Center
06:16PM 42.5317 -75.9511 116° Southeast 436 502 27,800 -660 Descending Boston Center
06:17PM 42.4781 -75.7958 115° Southeast 442 509 26,800 -900 Descending Boston Center
06:18PM 42.4239 -75.6467 116° Southeast 447 514 26,000 -960 Descending Boston Center
06:19PM 42.3717 -75.4978 115° Southeast 442 509 24,900 -1,080 Descending Boston Center
06:20PM 42.3192 -75.3519 116° Southeast 435 501 23,900 -1,500 Descending Boston Center
06:21PM 42.2747 -75.2208 115° Southeast 440 506 22,000 -2,280 Descending Boston Center
06:22PM 42.2178 -75.0725 117° Southeast 428 493 19,400 -1,380 Descending Boston Center
06:23PM 42.1567 -74.9103 117° Southeast 407 468 19,000 -240 Descending Boston Center
06:24PM 42.0992 -74.7767 120° Southeast 407 468 19,000 -300 Level Boston Center
06:25PM 42.0517 -74.6544 118° Southeast 407 468 18,500 -900 Descending Boston Center
06:26PM 41.9897 -74.5128 120° Southeast 407 468 17,200 -1,200 Descending Boston Center
06:27PM 41.9436 -74.3994 119° Southeast 401 461 16,200 -1,140 Descending Boston Center
06:28PM 41.8836 -74.2611 120° Southeast 396 456 15,000 -1,140 Descending Boston Center
06:29PM 41.8269 -74.1425 123° Southeast 385 443 14,000 -1,320 Descending Boston Center
06:30PM 41.7575 -74.0542 136° Southeast 371 427 12,400 -1,680 Descending Boston Center
06:31PM 41.6828 -74.0161 159° South 312 359 10,700 -1,560 Descending Boston Center
06:32PM 41.5833 -73.9667 160° South 273 314 8,900 -1,380 Descending New York TRACON
06:33PM 41.5167 -73.9333 159° South 261 300 7,700 -1,320 Descending New York TRACON
06:34PM 41.4667 -73.9167 166° South 219 252 6,500 -1,200 Descending New York TRACON
06:35PM 41.4167 -73.9167 180° South 176 203 5,300 -1,200 Descending New York TRACON
06:36PM 41.3667 -73.9000 166° South 168 193 4,200 -840 Descending New York TRACON
06:37PM 41.3167 -73.8833 166° South 171 197 3,700 -600 Descending New York TRACON
06:38PM 41.2667 -73.8667 166° South 174 200 3,000 -360 Descending New York TRACON
06:39PM 41.2333 -73.8333 143° Southeast 179 206 3,000  Level New York TRACON
06:40PM 41.1833 -73.8000 153° Southeast 173 199 3,000 -480 Level New York TRACON
06:41PM 41.1500 -73.7667 143° Southeast 175 201 2,000 -900 Descending New York TRACON
06:42PM 41.1167 -73.7333 143° Southeast 131 151 1,300 -780 Descending New York TRACON